East Lansdowne, Pennsylvania
Current Conditions -  °F | °C
As of 8:54 AM on Monday 24 Nov 2014 (Local Time) from KPHL Reporting Station
Broken Clouds Broken Clouds  
Wind Chill: 65°   Ceiling: 2200
Heat Index: 65°   Visibility: 10mi
Dew Point: 61°   Wind: 10mph
Humidity: 87%   Direction: 200°SSW
Pressure: 29.69"   Gusts: NA
Location:  39.9372°N, 75.2636°W
Report Text: KPHL 241354Z 20009KT 10SM SCT013 BKN022 BKN029 18/16 A2969 RMK AO2 SLP053 T01830161
Loading
Personal Weather Stations






























Interactive Weather Map New forecast layout! Learn more

10-Day Weather Forecast

Advertisements
Track Severe Weather on mobile